Airfield :
LOGIN :

Register | Disclaimer

   EN    FR    IT 

 










Legend :    VFR   Marginal VFR   IFR   Intensive IFR   Very Intensive IFR
Visi :
Ceiling :
>= 8 km
>= 3000ft
5 to 8 km
1000 to 3000 ft
1500m to 5 km
500 to 1000 ft
800 to 1500m
200 to 500 ft
< 800m
< 200 ft
Symbols :   Thunderstorms  Fog  Heavy snow  Heavy precipitations  Wind > 20 kt
SIGMETs :     Misc.  Thunderstorms  Icing  Turbulence  Mountain Waves  Volcanic Ashes






- Airport Elevation : 144 ft
- IATA code : PGF


LFMP - Perpignan

CURRENT METAR :
  • 230730Z AUTO 02005KT 340V050 9999 -RA ////// 15/15 Q1007

EXPIRED METARs :
  • 230700Z AUTO 28011KT 250V330 9999 -RA ////// 15/15 Q1007
  • 230630Z AUTO 24001KT 9999 TSRA ////// 15/15 Q1009
  • 230600Z AUTO 13004KT 100V190 9999 RA VCTS ////// 15/15 Q1007
  • 230530Z AUTO VRB03KT 9999 3600 +TSRA FEW042/// BKN074/// BKN094/// ///CB 15/15 Q1006 TEMPO 1500 TSRA BKN013CB
  • 230500Z AUTO 06005KT 330V090 9999 TS BKN025/// BKN070/// BKN080/// ///CB 15/15 Q1008 TEMPO 1500 TSRA BKN013CB

TAF TAF LFMP
Valid from the 23 at 03:00 until the 24 at 03:00 UTC


230200Z 2303/2403 10020G40KT 7000 OVC008
TEMPO 2303/2308 VRB05G30KT 1500 TSRA BKN013CB
BECMG 2306/2308 11016KT RA BKN012 OVC110
BECMG 2312/2315 NSW NSC
ATIS : +33 4 68 63 75 12



MET'MAP, your aeronautical weather chart ! - Copyright ORBIFLY December 2007 - Disclaimer

ORBIFLY MET'MAP TEAM :

Programming & Development : Alexandra Zaïnal
Concept & Development : Baudouin d'Aumeries
Co-Development & Prog : Marc-Olivier Méhu
Technical & hardware support : Manuel Goepfert

Contact : metmap@orbifly.com




SOURCES & CREDITS :

   NOAA